sensor_id;sensor_type;location;lat;lon;timestamp;P1;durP1;ratioP1;P2;durP2;ratioP2
77722;SDS011;67811;42.656;23.394;2024-03-23T00:54:54;7.07;;;3.22;;
77722;SDS011;67811;42.656;23.394;2024-03-23T00:58:59;5.83;;;3.10;;
77722;SDS011;67811;42.656;23.394;2024-03-23T01:03:04;6.90;;;3.23;;
77722;SDS011;67811;42.656;23.394;2024-03-23T01:07:10;12.10;;;4.70;;
77722;SDS011;67811;42.656;23.394;2024-03-23T01:11:15;7.50;;;4.77;;
77722;SDS011;67811;42.656;23.394;2024-03-23T01:15:20;10.10;;;4.77;;
77722;SDS011;67811;42.656;23.394;2024-03-23T01:19:25;9.13;;;3.43;;
77722;SDS011;67811;42.656;23.394;2024-03-23T01:23:31;5.90;;;3.37;;
77722;SDS011;67811;42.656;23.394;2024-03-23T01:27:36;8.47;;;4.73;;
77722;SDS011;67811;42.656;23.394;2024-03-23T01:31:41;8.13;;;3.93;;
77722;SDS011;67811;42.656;23.394;2024-03-23T01:35:47;7.27;;;3.90;;
77722;SDS011;67811;42.656;23.394;2024-03-23T01:39:52;7.90;;;4.80;;
77722;SDS011;67811;42.656;23.394;2024-03-23T01:43:57;5.40;;;2.87;;
77722;SDS011;67811;42.656;23.394;2024-03-23T01:48:02;5.83;;;3.27;;
77722;SDS011;67811;42.656;23.394;2024-03-23T01:52:08;8.95;;;4.30;;
77722;SDS011;67811;42.656;23.394;2024-03-23T01:56:14;9.70;;;3.72;;
77722;SDS011;67811;42.656;23.394;2024-03-23T02:00:19;8.53;;;3.80;;
77722;SDS011;67811;42.656;23.394;2024-03-23T02:04:24;7.07;;;3.90;;
77722;SDS011;67811;42.656;23.394;2024-03-23T02:08:30;9.47;;;4.30;;
77722;SDS011;67811;42.656;23.394;2024-03-23T02:12:36;7.68;;;3.97;;
77722;SDS011;67811;42.656;23.394;2024-03-23T02:16:42;8.35;;;4.07;;
77722;SDS011;67811;42.656;23.394;2024-03-23T02:20:48;7.70;;;3.95;;
77722;SDS011;67811;42.656;23.394;2024-03-23T02:24:53;9.97;;;4.53;;
77722;SDS011;67811;42.656;23.394;2024-03-23T02:28:58;9.30;;;5.20;;
77722;SDS011;67811;42.656;23.394;2024-03-23T02:33:04;8.77;;;4.43;;
77722;SDS011;67811;42.656;23.394;2024-03-23T02:37:12;9.50;;;3.90;;
77722;SDS011;67811;42.656;23.394;2024-03-23T02:41:17;7.97;;;4.05;;
77722;SDS011;67811;42.656;23.394;2024-03-23T02:45:22;7.53;;;3.80;;
77722;SDS011;67811;42.656;23.394;2024-03-23T02:49:28;8.83;;;4.37;;
77722;SDS011;67811;42.656;23.394;2024-03-23T02:53:33;9.10;;;4.13;;
77722;SDS011;67811;42.656;23.394;2024-03-23T02:57:38;8.25;;;3.88;;
77722;SDS011;67811;42.656;23.394;2024-03-23T03:01:44;8.20;;;4.23;;
77722;SDS011;67811;42.656;23.394;2024-03-23T03:05:54;9.13;;;4.43;;
77722;SDS011;67811;42.656;23.394;2024-03-23T03:10:00;4.72;;;2.38;;
77722;SDS011;67811;42.656;23.394;2024-03-23T03:14:05;10.00;;;5.10;;
77722;SDS011;67811;42.656;23.394;2024-03-23T03:18:11;10.20;;;4.40;;
77722;SDS011;67811;42.656;23.394;2024-03-23T03:22:16;12.93;;;4.53;;
77722;SDS011;67811;42.656;23.394;2024-03-23T03:26:22;8.97;;;4.53;;
77722;SDS011;67811;42.656;23.394;2024-03-23T03:30:27;6.90;;;3.00;;
77722;SDS011;67811;42.656;23.394;2024-03-23T03:34:33;12.23;;;3.90;;
77722;SDS011;67811;42.656;23.394;2024-03-23T03:38:38;6.47;;;2.83;;
77722;SDS011;67811;42.656;23.394;2024-03-23T03:42:44;8.30;;;4.43;;
77722;SDS011;67811;42.656;23.394;2024-03-23T03:46:50;7.57;;;4.43;;
77722;SDS011;67811;42.656;23.394;2024-03-23T03:50:55;6.57;;;3.47;;
77722;SDS011;67811;42.656;23.394;2024-03-23T03:55:01;5.77;;;3.37;;
77722;SDS011;67811;42.656;23.394;2024-03-23T03:59:07;7.07;;;3.97;;
77722;SDS011;67811;42.656;23.394;2024-03-23T04:03:12;8.10;;;3.70;;
77722;SDS011;67811;42.656;23.394;2024-03-23T04:07:18;7.20;;;3.80;;
77722;SDS011;67811;42.656;23.394;2024-03-23T04:11:23;5.23;;;2.87;;
77722;SDS011;67811;42.656;23.394;2024-03-23T04:15:28;5.57;;;3.17;;
77722;SDS011;67811;42.656;23.394;2024-03-23T04:19:34;6.20;;;3.40;;
77722;SDS011;67811;42.656;23.394;2024-03-23T04:23:39;9.47;;;4.20;;
77722;SDS011;67811;42.656;23.394;2024-03-23T04:27:44;6.47;;;3.67;;
77722;SDS011;67811;42.656;23.394;2024-03-23T04:31:49;4.87;;;3.00;;
77722;SDS011;67811;42.656;23.394;2024-03-23T04:35:55;7.37;;;4.00;;
77722;SDS011;67811;42.656;23.394;2024-03-23T04:40:00;6.77;;;3.60;;
77722;SDS011;67811;42.656;23.394;2024-03-23T04:44:06;10.18;;;4.63;;
77722;SDS011;67811;42.656;23.394;2024-03-23T04:48:12;9.03;;;4.50;;
77722;SDS011;67811;42.656;23.394;2024-03-23T04:52:17;9.43;;;5.03;;
77722;SDS011;67811;42.656;23.394;2024-03-23T04:56:22;7.47;;;3.60;;
77722;SDS011;67811;42.656;23.394;2024-03-23T05:00:28;7.77;;;4.47;;
77722;SDS011;67811;42.656;23.394;2024-03-23T05:04:33;18.23;;;7.03;;
77722;SDS011;67811;42.656;23.394;2024-03-23T05:08:38;11.87;;;5.87;;
77722;SDS011;67811;42.656;23.394;2024-03-23T05:12:43;16.87;;;7.80;;
77722;SDS011;67811;42.656;23.394;2024-03-23T05:16:49;13.17;;;7.30;;
77722;SDS011;67811;42.656;23.394;2024-03-23T05:20:57;12.13;;;7.07;;
77722;SDS011;67811;42.656;23.394;2024-03-23T05:25:03;14.23;;;7.35;;
77722;SDS011;67811;42.656;23.394;2024-03-23T05:29:09;15.52;;;7.13;;
77722;SDS011;67811;42.656;23.394;2024-03-23T05:33:14;11.07;;;5.77;;
77722;SDS011;67811;42.656;23.394;2024-03-23T05:37:19;12.53;;;5.90;;
77722;SDS011;67811;42.656;23.394;2024-03-23T05:41:25;10.03;;;4.73;;
77722;SDS011;67811;42.656;23.394;2024-03-23T05:45:30;10.70;;;5.03;;
77722;SDS011;67811;42.656;23.394;2024-03-23T05:49:35;12.67;;;4.80;;
77722;SDS011;67811;42.656;23.394;2024-03-23T05:53:40;13.30;;;5.50;;
77722;SDS011;67811;42.656;23.394;2024-03-23T05:57:46;12.37;;;5.43;;
77722;SDS011;67811;42.656;23.394;2024-03-23T06:01:51;11.17;;;5.33;;
77722;SDS011;67811;42.656;23.394;2024-03-23T06:05:56;10.90;;;5.80;;
77722;SDS011;67811;42.656;23.394;2024-03-23T06:10:02;12.10;;;5.97;;
77722;SDS011;67811;42.656;23.394;2024-03-23T06:14:07;12.95;;;6.00;;
77722;SDS011;67811;42.656;23.394;2024-03-23T06:18:12;11.23;;;5.80;;
77722;SDS011;67811;42.656;23.394;2024-03-23T06:22:18;12.50;;;6.37;;
77722;SDS011;67811;42.656;23.394;2024-03-23T06:26:23;11.87;;;6.67;;
77722;SDS011;67811;42.656;23.394;2024-03-23T06:30:28;14.53;;;6.90;;
77722;SDS011;67811;42.656;23.394;2024-03-23T06:34:34;12.60;;;7.70;;
77722;SDS011;67811;42.656;23.394;2024-03-23T06:38:39;14.83;;;7.10;;
77722;SDS011;67811;42.656;23.394;2024-03-23T06:42:44;12.50;;;6.53;;
77722;SDS011;67811;42.656;23.394;2024-03-23T06:46:49;15.63;;;6.57;;
77722;SDS011;67811;42.656;23.394;2024-03-23T06:50:55;11.53;;;6.87;;
77722;SDS011;67811;42.656;23.394;2024-03-23T06:55:01;10.07;;;6.22;;
77722;SDS011;67811;42.656;23.394;2024-03-23T06:59:07;13.60;;;6.97;;
77722;SDS011;67811;42.656;23.394;2024-03-23T07:03:12;11.40;;;6.60;;
77722;SDS011;67811;42.656;23.394;2024-03-23T07:07:17;14.07;;;6.40;;
77722;SDS011;67811;42.656;23.394;2024-03-23T07:11:23;11.60;;;5.27;;
77722;SDS011;67811;42.656;23.394;2024-03-23T07:15:29;11.13;;;6.38;;
77722;SDS011;67811;42.656;23.394;2024-03-23T07:19:34;12.90;;;6.67;;
77722;SDS011;67811;42.656;23.394;2024-03-23T07:23:41;13.27;;;6.67;;
77722;SDS011;67811;42.656;23.394;2024-03-23T07:27:47;12.23;;;6.68;;
77722;SDS011;67811;42.656;23.394;2024-03-23T07:31:52;10.80;;;6.57;;
77722;SDS011;67811;42.656;23.394;2024-03-23T07:35:58;13.17;;;6.67;;
77722;SDS011;67811;42.656;23.394;2024-03-23T07:40:04;10.63;;;5.53;;
77722;SDS011;67811;42.656;23.394;2024-03-23T07:44:10;19.05;;;6.60;;
77722;SDS011;67811;42.656;23.394;2024-03-23T07:48:15;9.52;;;5.22;;
77722;SDS011;67811;42.656;23.394;2024-03-23T07:52:21;11.70;;;6.33;;
77722;SDS011;67811;42.656;23.394;2024-03-23T07:56:26;12.27;;;6.50;;
77722;SDS011;67811;42.656;23.394;2024-03-23T08:00:32;12.87;;;7.57;;
77722;SDS011;67811;42.656;23.394;2024-03-23T08:04:38;14.38;;;7.88;;
77722;SDS011;67811;42.656;23.394;2024-03-23T08:08:44;15.53;;;7.23;;
77722;SDS011;67811;42.656;23.394;2024-03-23T08:12:50;15.57;;;6.97;;
77722;SDS011;67811;42.656;23.394;2024-03-23T08:16:55;12.47;;;7.90;;
77722;SDS011;67811;42.656;23.394;2024-03-23T08:21:04;14.80;;;7.37;;
77722;SDS011;67811;42.656;23.394;2024-03-23T08:25:10;11.68;;;7.30;;
77722;SDS011;67811;42.656;23.394;2024-03-23T08:29:16;10.43;;;7.13;;
77722;SDS011;67811;42.656;23.394;2024-03-23T08:33:21;15.00;;;7.00;;
77722;SDS011;67811;42.656;23.394;2024-03-23T08:37:27;14.32;;;7.07;;
77722;SDS011;67811;42.656;23.394;2024-03-23T08:41:32;10.47;;;7.00;;
77722;SDS011;67811;42.656;23.394;2024-03-23T08:45:37;9.90;;;6.37;;
77722;SDS011;67811;42.656;23.394;2024-03-23T08:49:44;11.83;;;7.20;;
77722;SDS011;67811;42.656;23.394;2024-03-23T08:53:49;13.65;;;6.50;;
77722;SDS011;67811;42.656;23.394;2024-03-23T08:57:55;10.73;;;6.00;;
77722;SDS011;67811;42.656;23.394;2024-03-23T09:02:00;14.23;;;7.40;;
77722;SDS011;67811;42.656;23.394;2024-03-23T09:06:09;11.55;;;6.60;;
77722;SDS011;67811;42.656;23.394;2024-03-23T09:10:15;7.95;;;5.50;;
77722;SDS011;67811;42.656;23.394;2024-03-23T09:14:21;11.33;;;6.40;;
77722;SDS011;67811;42.656;23.394;2024-03-23T09:18:27;9.88;;;6.55;;
77722;SDS011;67811;42.656;23.394;2024-03-23T09:22:32;10.90;;;6.87;;
77722;SDS011;67811;42.656;23.394;2024-03-23T09:26:38;11.40;;;7.00;;
77722;SDS011;67811;42.656;23.394;2024-03-23T09:30:43;11.37;;;6.30;;
77722;SDS011;67811;42.656;23.394;2024-03-23T09:34:48;12.70;;;6.30;;
77722;SDS011;67811;42.656;23.394;2024-03-23T09:38:54;9.30;;;5.93;;
77722;SDS011;67811;42.656;23.394;2024-03-23T09:42:59;11.07;;;5.83;;
77722;SDS011;67811;42.656;23.394;2024-03-23T09:47:04;8.87;;;5.57;;
77722;SDS011;67811;42.656;23.394;2024-03-23T09:51:10;9.33;;;4.93;;
77722;SDS011;67811;42.656;23.394;2024-03-23T09:55:15;10.50;;;4.90;;
77722;SDS011;67811;42.656;23.394;2024-03-23T09:59:20;8.52;;;5.38;;
77722;SDS011;67811;42.656;23.394;2024-03-23T10:03:26;12.40;;;5.57;;
77722;SDS011;67811;42.656;23.394;2024-03-23T10:07:31;14.80;;;6.80;;
77722;SDS011;67811;42.656;23.394;2024-03-23T10:11:36;7.90;;;5.13;;
77722;SDS011;67811;42.656;23.394;2024-03-23T10:15:42;8.37;;;4.43;;
77722;SDS011;67811;42.656;23.394;2024-03-23T10:19:48;8.80;;;5.23;;
77722;SDS011;67811;42.656;23.394;2024-03-23T10:27:59;7.55;;;4.70;;
77722;SDS011;67811;42.656;23.394;2024-03-23T10:32:08;9.80;;;5.00;;
77722;SDS011;67811;42.656;23.394;2024-03-23T10:36:17;11.48;;;4.85;;
77722;SDS011;67811;42.656;23.394;2024-03-23T10:40:24;10.25;;;5.57;;
77722;SDS011;67811;42.656;23.394;2024-03-23T10:44:30;9.55;;;5.25;;
77722;SDS011;67811;42.656;23.394;2024-03-23T10:48:35;9.20;;;5.50;;
77722;SDS011;67811;42.656;23.394;2024-03-23T10:52:41;11.63;;;6.03;;
77722;SDS011;67811;42.656;23.394;2024-03-23T10:56:59;10.85;;;5.32;;
77722;SDS011;67811;42.656;23.394;2024-03-23T11:01:13;9.20;;;5.65;;
77722;SDS011;67811;42.656;23.394;2024-03-23T11:05:28;10.50;;;6.47;;
77722;SDS011;67811;42.656;23.394;2024-03-23T11:13:39;10.23;;;6.30;;
77722;SDS011;67811;42.656;23.394;2024-03-23T11:18:04;10.47;;;6.13;;
77722;SDS011;67811;42.656;23.394;2024-03-23T11:22:11;10.43;;;6.30;;
77722;SDS011;67811;42.656;23.394;2024-03-23T11:26:16;13.57;;;6.40;;
77722;SDS011;67811;42.656;23.394;2024-03-23T11:30:22;10.30;;;5.50;;
77722;SDS011;67811;42.656;23.394;2024-03-23T11:34:27;8.85;;;5.65;;
77722;SDS011;67811;42.656;23.394;2024-03-23T11:38:36;8.33;;;5.10;;
77722;SDS011;67811;42.656;23.394;2024-03-23T11:42:41;8.55;;;5.47;;
77722;SDS011;67811;42.656;23.394;2024-03-23T11:46:47;9.67;;;5.67;;
77722;SDS011;67811;42.656;23.394;2024-03-23T11:50:56;8.50;;;5.85;;
77722;SDS011;67811;42.656;23.394;2024-03-23T11:55:03;9.07;;;5.03;;
77722;SDS011;67811;42.656;23.394;2024-03-23T11:59:09;9.52;;;4.50;;
77722;SDS011;67811;42.656;23.394;2024-03-23T12:03:14;10.87;;;6.03;;
77722;SDS011;67811;42.656;23.394;2024-03-23T12:07:21;10.48;;;5.85;;
77722;SDS011;67811;42.656;23.394;2024-03-23T12:11:26;9.60;;;5.87;;
77722;SDS011;67811;42.656;23.394;2024-03-23T12:15:32;10.27;;;5.60;;
77722;SDS011;67811;42.656;23.394;2024-03-23T12:19:37;9.10;;;4.97;;
77722;SDS011;67811;42.656;23.394;2024-03-23T12:23:43;9.85;;;5.97;;
77722;SDS011;67811;42.656;23.394;2024-03-23T12:27:49;8.48;;;5.68;;
77722;SDS011;67811;42.656;23.394;2024-03-23T12:31:54;9.23;;;4.57;;
77722;SDS011;67811;42.656;23.394;2024-03-23T12:35:59;9.07;;;5.83;;
77722;SDS011;67811;42.656;23.394;2024-03-23T12:40:05;10.70;;;5.10;;
77722;SDS011;67811;42.656;23.394;2024-03-23T12:44:11;9.55;;;5.72;;
77722;SDS011;67811;42.656;23.394;2024-03-23T12:48:17;11.40;;;7.67;;
77722;SDS011;67811;42.656;23.394;2024-03-23T12:52:22;9.47;;;5.13;;
77722;SDS011;67811;42.656;23.394;2024-03-23T12:56:27;10.00;;;5.17;;
77722;SDS011;67811;42.656;23.394;2024-03-23T13:00:33;6.07;;;3.50;;
77722;SDS011;67811;42.656;23.394;2024-03-23T13:04:38;6.83;;;3.90;;
77722;SDS011;67811;42.656;23.394;2024-03-23T13:08:44;7.23;;;3.87;;
77722;SDS011;67811;42.656;23.394;2024-03-23T13:12:49;7.03;;;3.80;;
77722;SDS011;67811;42.656;23.394;2024-03-23T13:16:54;7.73;;;3.60;;
77722;SDS011;67811;42.656;23.394;2024-03-23T13:21:00;8.63;;;3.63;;
77722;SDS011;67811;42.656;23.394;2024-03-23T13:25:05;6.80;;;3.13;;
77722;SDS011;67811;42.656;23.394;2024-03-23T13:29:11;6.10;;;3.08;;
77722;SDS011;67811;42.656;23.394;2024-03-23T13:33:16;8.37;;;3.30;;
77722;SDS011;67811;42.656;23.394;2024-03-23T13:37:21;4.90;;;3.00;;
77722;SDS011;67811;42.656;23.394;2024-03-23T13:41:27;4.50;;;2.23;;
77722;SDS011;67811;42.656;23.394;2024-03-23T13:45:32;3.70;;;2.20;;
77722;SDS011;67811;42.656;23.394;2024-03-23T13:49:37;3.93;;;2.30;;
77722;SDS011;67811;42.656;23.394;2024-03-23T13:53:43;5.70;;;2.57;;
77722;SDS011;67811;42.656;23.394;2024-03-23T13:57:48;6.37;;;3.60;;
77722;SDS011;67811;42.656;23.394;2024-03-23T14:01:53;6.70;;;3.70;;
77722;SDS011;67811;42.656;23.394;2024-03-23T14:05:58;5.90;;;3.57;;
77722;SDS011;67811;42.656;23.394;2024-03-23T14:10:04;9.13;;;3.30;;
77722;SDS011;67811;42.656;23.394;2024-03-23T14:14:10;6.07;;;3.10;;
77722;SDS011;67811;42.656;23.394;2024-03-23T14:18:15;5.17;;;2.27;;
77722;SDS011;67811;42.656;23.394;2024-03-23T14:22:20;4.10;;;2.33;;
77722;SDS011;67811;42.656;23.394;2024-03-23T14:26:26;3.67;;;1.90;;
77722;SDS011;67811;42.656;23.394;2024-03-23T14:30:31;5.28;;;2.70;;
77722;SDS011;67811;42.656;23.394;2024-03-23T14:34:37;4.53;;;2.17;;
77722;SDS011;67811;42.656;23.394;2024-03-23T14:38:42;3.00;;;1.50;;
77722;SDS011;67811;42.656;23.394;2024-03-23T14:42:51;4.93;;;2.60;;
77722;SDS011;67811;42.656;23.394;2024-03-23T14:46:57;3.83;;;1.33;;
77722;SDS011;67811;42.656;23.394;2024-03-23T14:51:02;2.67;;;1.17;;
77722;SDS011;67811;42.656;23.394;2024-03-23T14:55:08;2.47;;;1.13;;
77722;SDS011;67811;42.656;23.394;2024-03-23T14:59:13;3.03;;;1.20;;
77722;SDS011;67811;42.656;23.394;2024-03-23T15:03:18;2.90;;;1.20;;
77722;SDS011;67811;42.656;23.394;2024-03-23T15:07:24;4.37;;;1.23;;
77722;SDS011;67811;42.656;23.394;2024-03-23T15:11:29;4.17;;;1.60;;
77722;SDS011;67811;42.656;23.394;2024-03-23T15:15:38;3.47;;;1.63;;
77722;SDS011;67811;42.656;23.394;2024-03-23T15:19:46;3.60;;;1.35;;
77722;SDS011;67811;42.656;23.394;2024-03-23T15:23:52;2.80;;;1.20;;
77722;SDS011;67811;42.656;23.394;2024-03-23T15:27:57;3.03;;;1.50;;
77722;SDS011;67811;42.656;23.394;2024-03-23T15:32:03;4.18;;;1.50;;
77722;SDS011;67811;42.656;23.394;2024-03-23T15:36:09;4.28;;;1.48;;
77722;SDS011;67811;42.656;23.394;2024-03-23T15:40:14;3.87;;;1.47;;
77722;SDS011;67811;42.656;23.394;2024-03-23T15:44:19;4.07;;;1.93;;
77722;SDS011;67811;42.656;23.394;2024-03-23T15:48:24;4.13;;;1.53;;
77722;SDS011;67811;42.656;23.394;2024-03-23T15:52:30;3.28;;;1.30;;
77722;SDS011;67811;42.656;23.394;2024-03-23T15:56:35;3.17;;;1.60;;
77722;SDS011;67811;42.656;23.394;2024-03-23T16:00:40;3.97;;;1.87;;
77722;SDS011;67811;42.656;23.394;2024-03-23T16:04:46;3.23;;;1.67;;
77722;SDS011;67811;42.656;23.394;2024-03-23T16:08:51;3.90;;;2.20;;
77722;SDS011;67811;42.656;23.394;2024-03-23T16:12:57;5.72;;;2.40;;
77722;SDS011;67811;42.656;23.394;2024-03-23T16:17:02;4.00;;;1.97;;
77722;SDS011;67811;42.656;23.394;2024-03-23T16:21:08;5.68;;;2.28;;
77722;SDS011;67811;42.656;23.394;2024-03-23T16:25:13;4.53;;;2.13;;
77722;SDS011;67811;42.656;23.394;2024-03-23T16:29:18;4.67;;;1.80;;
77722;SDS011;67811;42.656;23.394;2024-03-23T16:33:24;4.93;;;2.40;;
77722;SDS011;67811;42.656;23.394;2024-03-23T16:37:30;4.22;;;2.03;;
77722;SDS011;67811;42.656;23.394;2024-03-23T16:41:35;4.23;;;1.77;;
77722;SDS011;67811;42.656;23.394;2024-03-23T16:45:40;5.80;;;2.63;;
77722;SDS011;67811;42.656;23.394;2024-03-23T16:49:46;4.43;;;2.47;;
77722;SDS011;67811;42.656;23.394;2024-03-23T16:53:51;5.43;;;2.20;;
77722;SDS011;67811;42.656;23.394;2024-03-23T16:57:56;4.83;;;2.40;;
77722;SDS011;67811;42.656;23.394;2024-03-23T17:02:02;5.37;;;2.17;;
77722;SDS011;67811;42.656;23.394;2024-03-23T17:06:07;4.60;;;2.50;;
77722;SDS011;67811;42.656;23.394;2024-03-23T17:10:12;5.43;;;2.85;;
77722;SDS011;67811;42.656;23.394;2024-03-23T17:14:18;7.37;;;3.57;;
77722;SDS011;67811;42.656;23.394;2024-03-23T17:18:23;6.37;;;3.20;;
77722;SDS011;67811;42.656;23.394;2024-03-23T17:22:28;8.13;;;4.07;;
77722;SDS011;67811;42.656;23.394;2024-03-23T17:26:34;8.00;;;4.20;;
77722;SDS011;67811;42.656;23.394;2024-03-23T17:30:40;8.63;;;3.97;;
77722;SDS011;67811;42.656;23.394;2024-03-23T17:34:46;8.37;;;4.60;;
77722;SDS011;67811;42.656;23.394;2024-03-23T17:38:51;6.73;;;3.70;;
77722;SDS011;67811;42.656;23.394;2024-03-23T17:43:00;7.32;;;3.45;;
77722;SDS011;67811;42.656;23.394;2024-03-23T17:47:05;6.30;;;3.17;;
77722;SDS011;67811;42.656;23.394;2024-03-23T17:51:10;4.90;;;2.90;;
77722;SDS011;67811;42.656;23.394;2024-03-23T17:55:16;12.87;;;5.83;;
77722;SDS011;67811;42.656;23.394;2024-03-23T17:59:21;5.35;;;3.28;;
77722;SDS011;67811;42.656;23.394;2024-03-23T18:03:27;6.53;;;3.63;;
77722;SDS011;67811;42.656;23.394;2024-03-23T18:07:32;6.37;;;3.77;;
77722;SDS011;67811;42.656;23.394;2024-03-23T18:11:37;7.10;;;3.50;;
77722;SDS011;67811;42.656;23.394;2024-03-23T18:15:43;9.97;;;5.10;;
77722;SDS011;67811;42.656;23.394;2024-03-23T18:19:48;8.10;;;4.03;;
77722;SDS011;67811;42.656;23.394;2024-03-23T18:23:53;8.80;;;4.20;;
77722;SDS011;67811;42.656;23.394;2024-03-23T18:27:59;7.60;;;3.80;;
77722;SDS011;67811;42.656;23.394;2024-03-23T18:32:04;8.63;;;4.27;;
77722;SDS011;67811;42.656;23.394;2024-03-23T18:36:10;11.55;;;5.80;;
77722;SDS011;67811;42.656;23.394;2024-03-23T18:40:15;11.27;;;5.60;;
77722;SDS011;67811;42.656;23.394;2024-03-23T18:44:20;10.43;;;5.40;;
77722;SDS011;67811;42.656;23.394;2024-03-23T18:48:26;12.30;;;5.57;;
77722;SDS011;67811;42.656;23.394;2024-03-23T18:52:31;8.83;;;4.93;;
77722;SDS011;67811;42.656;23.394;2024-03-23T18:56:36;9.57;;;5.27;;
77722;SDS011;67811;42.656;23.394;2024-03-23T19:00:41;10.47;;;5.53;;
77722;SDS011;67811;42.656;23.394;2024-03-23T19:04:47;7.67;;;4.33;;
77722;SDS011;67811;42.656;23.394;2024-03-23T19:08:52;9.13;;;5.23;;
77722;SDS011;67811;42.656;23.394;2024-03-23T19:12:57;8.53;;;4.43;;
77722;SDS011;67811;42.656;23.394;2024-03-23T19:17:02;7.77;;;4.13;;
77722;SDS011;67811;42.656;23.394;2024-03-23T19:21:08;10.43;;;4.33;;
77722;SDS011;67811;42.656;23.394;2024-03-23T19:25:13;9.13;;;4.20;;
77722;SDS011;67811;42.656;23.394;2024-03-23T19:29:18;10.90;;;5.43;;
77722;SDS011;67811;42.656;23.394;2024-03-23T19:33:24;9.43;;;5.17;;
77722;SDS011;67811;42.656;23.394;2024-03-23T19:37:29;10.77;;;4.53;;
77722;SDS011;67811;42.656;23.394;2024-03-23T19:41:35;7.97;;;4.10;;
77722;SDS011;67811;42.656;23.394;2024-03-23T19:45:40;8.97;;;4.30;;
77722;SDS011;67811;42.656;23.394;2024-03-23T19:49:45;10.17;;;4.07;;
77722;SDS011;67811;42.656;23.394;2024-03-23T19:53:51;9.53;;;4.93;;
77722;SDS011;67811;42.656;23.394;2024-03-23T19:57:56;9.53;;;4.67;;
77722;SDS011;67811;42.656;23.394;2024-03-23T20:02:01;10.00;;;5.33;;
77722;SDS011;67811;42.656;23.394;2024-03-23T20:06:06;10.73;;;5.00;;
77722;SDS011;67811;42.656;23.394;2024-03-23T20:10:12;19.50;;;5.40;;
77722;SDS011;67811;42.656;23.394;2024-03-23T20:14:17;12.20;;;5.30;;
77722;SDS011;67811;42.656;23.394;2024-03-23T20:18:22;10.67;;;5.47;;
77722;SDS011;67811;42.656;23.394;2024-03-23T20:22:28;10.25;;;4.85;;
77722;SDS011;67811;42.656;23.394;2024-03-23T20:26:33;7.87;;;4.47;;
77722;SDS011;67811;42.656;23.394;2024-03-23T20:30:39;10.90;;;5.60;;
77722;SDS011;67811;42.656;23.394;2024-03-23T20:34:44;11.60;;;5.57;;
77722;SDS011;67811;42.656;23.394;2024-03-23T20:38:49;10.73;;;4.87;;
77722;SDS011;67811;42.656;23.394;2024-03-23T20:42:55;10.50;;;5.33;;
77722;SDS011;67811;42.656;23.394;2024-03-23T20:47:12;9.07;;;5.03;;
77722;SDS011;67811;42.656;23.394;2024-03-23T20:51:17;11.53;;;5.33;;
77722;SDS011;67811;42.656;23.394;2024-03-23T20:55:23;9.93;;;5.53;;
77722;SDS011;67811;42.656;23.394;2024-03-23T20:59:28;9.90;;;5.80;;
77722;SDS011;67811;42.656;23.394;2024-03-23T21:03:33;10.33;;;4.87;;
77722;SDS011;67811;42.656;23.394;2024-03-23T21:07:39;17.02;;;5.65;;
77722;SDS011;67811;42.656;23.394;2024-03-23T21:11:44;11.20;;;5.17;;
77722;SDS011;67811;42.656;23.394;2024-03-23T21:15:49;11.13;;;5.23;;
77722;SDS011;67811;42.656;23.394;2024-03-23T21:19:56;10.43;;;5.15;;
77722;SDS011;67811;42.656;23.394;2024-03-23T21:24:01;8.57;;;5.20;;
77722;SDS011;67811;42.656;23.394;2024-03-23T21:28:06;8.70;;;4.63;;
77722;SDS011;67811;42.656;23.394;2024-03-23T21:32:12;10.23;;;5.07;;
77722;SDS011;67811;42.656;23.394;2024-03-23T21:36:17;9.67;;;5.50;;
77722;SDS011;67811;42.656;23.394;2024-03-23T21:40:22;9.90;;;5.30;;
77722;SDS011;67811;42.656;23.394;2024-03-23T21:44:27;11.77;;;5.17;;
77722;SDS011;67811;42.656;23.394;2024-03-23T21:48:33;12.43;;;5.40;;
77722;SDS011;67811;42.656;23.394;2024-03-23T21:52:38;8.63;;;5.47;;
77722;SDS011;67811;42.656;23.394;2024-03-23T21:56:43;11.43;;;5.47;;
77722;SDS011;67811;42.656;23.394;2024-03-23T22:00:49;9.90;;;5.30;;
77722;SDS011;67811;42.656;23.394;2024-03-23T22:04:54;9.95;;;4.38;;
77722;SDS011;67811;42.656;23.394;2024-03-23T22:09:00;9.60;;;4.97;;
77722;SDS011;67811;42.656;23.394;2024-03-23T22:13:05;7.23;;;3.97;;
77722;SDS011;67811;42.656;23.394;2024-03-23T22:17:11;10.98;;;5.05;;
77722;SDS011;67811;42.656;23.394;2024-03-23T22:21:16;10.47;;;4.70;;
77722;SDS011;67811;42.656;23.394;2024-03-23T22:25:25;8.03;;;4.20;;
77722;SDS011;67811;42.656;23.394;2024-03-23T22:29:30;9.45;;;4.38;;
77722;SDS011;67811;42.656;23.394;2024-03-23T22:33:35;9.43;;;5.60;;
77722;SDS011;67811;42.656;23.394;2024-03-23T22:37:41;9.17;;;4.33;;
77722;SDS011;67811;42.656;23.394;2024-03-23T22:41:46;9.05;;;4.53;;
77722;SDS011;67811;42.656;23.394;2024-03-23T22:45:58;10.00;;;5.13;;
77722;SDS011;67811;42.656;23.394;2024-03-23T22:50:07;6.60;;;3.80;;
77722;SDS011;67811;42.656;23.394;2024-03-23T22:54:13;10.70;;;5.32;;
77722;SDS011;67811;42.656;23.394;2024-03-23T22:58:18;8.30;;;4.47;;
77722;SDS011;67811;42.656;23.394;2024-03-23T23:02:24;9.30;;;4.45;;
77722;SDS011;67811;42.656;23.394;2024-03-23T23:06:30;9.37;;;4.80;;
77722;SDS011;67811;42.656;23.394;2024-03-23T23:10:35;11.53;;;5.73;;
77722;SDS011;67811;42.656;23.394;2024-03-23T23:14:42;8.98;;;4.75;;
77722;SDS011;67811;42.656;23.394;2024-03-23T23:18:47;9.07;;;4.77;;
77722;SDS011;67811;42.656;23.394;2024-03-23T23:22:52;9.20;;;4.87;;
77722;SDS011;67811;42.656;23.394;2024-03-23T23:26:57;11.20;;;5.83;;
77722;SDS011;67811;42.656;23.394;2024-03-23T23:31:03;10.43;;;4.73;;
77722;SDS011;67811;42.656;23.394;2024-03-23T23:35:08;10.73;;;4.60;;
77722;SDS011;67811;42.656;23.394;2024-03-23T23:39:13;10.80;;;4.70;;
77722;SDS011;67811;42.656;23.394;2024-03-23T23:43:19;11.07;;;4.67;;
77722;SDS011;67811;42.656;23.394;2024-03-23T23:47:24;11.80;;;5.00;;
77722;SDS011;67811;42.656;23.394;2024-03-23T23:51:29;9.60;;;4.27;;
77722;SDS011;67811;42.656;23.394;2024-03-23T23:55:34;9.97;;;5.13;;
77722;SDS011;67811;42.656;23.394;2024-03-23T23:59:40;6.73;;;3.50;;
